sensor_id;sensor_type;location;lat;lon;timestamp;P1;durP1;ratioP1;P2;durP2;ratioP2
7340;SDS011;6870;50.944;6.932;2023-11-22T00:01:25;6.80;;;6.07;;
7340;SDS011;6870;50.944;6.932;2023-11-22T00:03:53;6.03;;;5.43;;
7340;SDS011;6870;50.944;6.932;2023-11-22T00:06:21;7.20;;;5.80;;
7340;SDS011;6870;50.944;6.932;2023-11-22T00:08:49;5.83;;;5.23;;
7340;SDS011;6870;50.944;6.932;2023-11-22T00:11:18;6.27;;;5.50;;
7340;SDS011;6870;50.944;6.932;2023-11-22T00:13:46;5.40;;;5.00;;
7340;SDS011;6870;50.944;6.932;2023-11-22T00:16:15;6.17;;;5.57;;
7340;SDS011;6870;50.944;6.932;2023-11-22T00:18:44;6.07;;;5.50;;
7340;SDS011;6870;50.944;6.932;2023-11-22T00:21:13;5.90;;;5.27;;
7340;SDS011;6870;50.944;6.932;2023-11-22T00:23:41;5.47;;;4.97;;
7340;SDS011;6870;50.944;6.932;2023-11-22T00:26:09;6.30;;;5.43;;
7340;SDS011;6870;50.944;6.932;2023-11-22T00:28:37;6.23;;;5.17;;
7340;SDS011;6870;50.944;6.932;2023-11-22T00:31:05;5.17;;;4.40;;
7340;SDS011;6870;50.944;6.932;2023-11-22T00:33:34;6.73;;;5.17;;
7340;SDS011;6870;50.944;6.932;2023-11-22T00:36:04;7.40;;;5.40;;
7340;SDS011;6870;50.944;6.932;2023-11-22T00:38:34;5.30;;;4.80;;
7340;SDS011;6870;50.944;6.932;2023-11-22T00:41:03;5.53;;;4.93;;
7340;SDS011;6870;50.944;6.932;2023-11-22T00:43:33;6.13;;;5.53;;
7340;SDS011;6870;50.944;6.932;2023-11-22T00:46:01;5.47;;;4.90;;
7340;SDS011;6870;50.944;6.932;2023-11-22T00:48:29;5.67;;;5.07;;
7340;SDS011;6870;50.944;6.932;2023-11-22T00:50:57;5.43;;;4.93;;
7340;SDS011;6870;50.944;6.932;2023-11-22T00:53:27;5.13;;;4.53;;
7340;SDS011;6870;50.944;6.932;2023-11-22T00:55:56;5.47;;;4.47;;
7340;SDS011;6870;50.944;6.932;2023-11-22T00:58:24;6.30;;;5.50;;
7340;SDS011;6870;50.944;6.932;2023-11-22T01:00:53;5.50;;;4.93;;
7340;SDS011;6870;50.944;6.932;2023-11-22T01:03:21;6.00;;;5.40;;
7340;SDS011;6870;50.944;6.932;2023-11-22T01:05:49;5.27;;;4.70;;
7340;SDS011;6870;50.944;6.932;2023-11-22T01:08:18;6.10;;;5.50;;
7340;SDS011;6870;50.944;6.932;2023-11-22T01:10:47;4.97;;;4.47;;
7340;SDS011;6870;50.944;6.932;2023-11-22T01:13:15;5.00;;;4.10;;
7340;SDS011;6870;50.944;6.932;2023-11-22T01:15:44;5.83;;;5.30;;
7340;SDS011;6870;50.944;6.932;2023-11-22T01:18:13;6.37;;;4.83;;
7340;SDS011;6870;50.944;6.932;2023-11-22T01:20:41;5.70;;;5.10;;
7340;SDS011;6870;50.944;6.932;2023-11-22T01:23:09;4.93;;;4.17;;
7340;SDS011;6870;50.944;6.932;2023-11-22T01:25:37;7.23;;;5.50;;
7340;SDS011;6870;50.944;6.932;2023-11-22T01:28:06;5.83;;;5.23;;
7340;SDS011;6870;50.944;6.932;2023-11-22T01:30:37;5.23;;;4.30;;
7340;SDS011;6870;50.944;6.932;2023-11-22T01:33:05;5.77;;;5.03;;
7340;SDS011;6870;50.944;6.932;2023-11-22T01:35:33;7.00;;;5.63;;
7340;SDS011;6870;50.944;6.932;2023-11-22T01:38:01;5.07;;;4.50;;
7340;SDS011;6870;50.944;6.932;2023-11-22T01:40:30;5.40;;;4.90;;
7340;SDS011;6870;50.944;6.932;2023-11-22T01:42:58;5.00;;;4.60;;
7340;SDS011;6870;50.944;6.932;2023-11-22T01:45:30;5.50;;;5.00;;
7340;SDS011;6870;50.944;6.932;2023-11-22T01:47:58;4.90;;;4.40;;
7340;SDS011;6870;50.944;6.932;2023-11-22T01:50:28;5.13;;;4.63;;
7340;SDS011;6870;50.944;6.932;2023-11-22T01:52:56;5.10;;;4.60;;
7340;SDS011;6870;50.944;6.932;2023-11-22T01:55:25;4.60;;;4.20;;
7340;SDS011;6870;50.944;6.932;2023-11-22T01:57:53;5.07;;;4.57;;
7340;SDS011;6870;50.944;6.932;2023-11-22T02:00:21;4.50;;;4.07;;
7340;SDS011;6870;50.944;6.932;2023-11-22T02:02:53;5.00;;;4.20;;
7340;SDS011;6870;50.944;6.932;2023-11-22T02:05:21;8.00;;;5.30;;
7340;SDS011;6870;50.944;6.932;2023-11-22T02:07:49;4.43;;;4.03;;
7340;SDS011;6870;50.944;6.932;2023-11-22T02:10:18;4.57;;;3.87;;
7340;SDS011;6870;50.944;6.932;2023-11-22T02:12:47;4.70;;;4.20;;
7340;SDS011;6870;50.944;6.932;2023-11-22T02:15:15;4.37;;;3.50;;
7340;SDS011;6870;50.944;6.932;2023-11-22T02:17:43;4.50;;;4.10;;
7340;SDS011;6870;50.944;6.932;2023-11-22T02:20:12;6.57;;;3.97;;
7340;SDS011;6870;50.944;6.932;2023-11-22T02:22:42;4.20;;;3.80;;
7340;SDS011;6870;50.944;6.932;2023-11-22T02:25:13;4.37;;;3.97;;
7340;SDS011;6870;50.944;6.932;2023-11-22T02:27:42;4.60;;;4.20;;
7340;SDS011;6870;50.944;6.932;2023-11-22T02:30:10;4.30;;;3.90;;
7340;SDS011;6870;50.944;6.932;2023-11-22T02:32:39;4.40;;;4.00;;
7340;SDS011;6870;50.944;6.932;2023-11-22T02:35:07;4.57;;;4.10;;
7340;SDS011;6870;50.944;6.932;2023-11-22T02:37:35;4.53;;;4.13;;
7340;SDS011;6870;50.944;6.932;2023-11-22T02:40:05;5.50;;;4.00;;
7340;SDS011;6870;50.944;6.932;2023-11-22T02:42:40;5.13;;;4.40;;
7340;SDS011;6870;50.944;6.932;2023-11-22T02:45:08;4.30;;;4.00;;
7340;SDS011;6870;50.944;6.932;2023-11-22T02:47:37;5.90;;;4.60;;
7340;SDS011;6870;50.944;6.932;2023-11-22T02:50:05;4.70;;;3.90;;
7340;SDS011;6870;50.944;6.932;2023-11-22T02:52:34;4.93;;;3.93;;
7340;SDS011;6870;50.944;6.932;2023-11-22T02:55:02;5.40;;;4.17;;
7340;SDS011;6870;50.944;6.932;2023-11-22T02:57:31;4.77;;;4.27;;
7340;SDS011;6870;50.944;6.932;2023-11-22T03:00:00;4.30;;;3.90;;
7340;SDS011;6870;50.944;6.932;2023-11-22T03:02:30;4.77;;;3.63;;
7340;SDS011;6870;50.944;6.932;2023-11-22T03:04:59;5.40;;;3.80;;
7340;SDS011;6870;50.944;6.932;2023-11-22T03:07:27;5.57;;;3.90;;
7340;SDS011;6870;50.944;6.932;2023-11-22T03:09:55;6.73;;;3.83;;
7340;SDS011;6870;50.944;6.932;2023-11-22T03:12:26;4.07;;;3.70;;
7340;SDS011;6870;50.944;6.932;2023-11-22T03:14:54;3.67;;;3.33;;
7340;SDS011;6870;50.944;6.932;2023-11-22T03:17:28;4.27;;;3.83;;
7340;SDS011;6870;50.944;6.932;2023-11-22T03:19:56;4.00;;;3.60;;
7340;SDS011;6870;50.944;6.932;2023-11-22T03:22:25;5.07;;;3.70;;
7340;SDS011;6870;50.944;6.932;2023-11-22T03:24:56;4.57;;;3.20;;
7340;SDS011;6870;50.944;6.932;2023-11-22T03:27:26;4.20;;;3.80;;
7340;SDS011;6870;50.944;6.932;2023-11-22T03:29:54;4.00;;;3.60;;
7340;SDS011;6870;50.944;6.932;2023-11-22T03:32:22;4.93;;;4.17;;
7340;SDS011;6870;50.944;6.932;2023-11-22T03:34:51;4.33;;;3.93;;
7340;SDS011;6870;50.944;6.932;2023-11-22T03:37:20;5.33;;;4.77;;
7340;SDS011;6870;50.944;6.932;2023-11-22T03:39:48;4.70;;;4.10;;
7340;SDS011;6870;50.944;6.932;2023-11-22T03:42:16;3.93;;;3.37;;
7340;SDS011;6870;50.944;6.932;2023-11-22T03:44:53;3.23;;;2.93;;
7340;SDS011;6870;50.944;6.932;2023-11-22T03:47:21;3.90;;;3.50;;
7340;SDS011;6870;50.944;6.932;2023-11-22T03:49:49;6.00;;;3.80;;
7340;SDS011;6870;50.944;6.932;2023-11-22T03:52:19;4.07;;;3.70;;
7340;SDS011;6870;50.944;6.932;2023-11-22T03:54:47;4.30;;;3.53;;
7340;SDS011;6870;50.944;6.932;2023-11-22T03:57:15;4.00;;;3.70;;
7340;SDS011;6870;50.944;6.932;2023-11-22T03:59:43;3.90;;;3.17;;
7340;SDS011;6870;50.944;6.932;2023-11-22T04:02:11;3.87;;;3.50;;
7340;SDS011;6870;50.944;6.932;2023-11-22T04:04:39;6.07;;;4.10;;
7340;SDS011;6870;50.944;6.932;2023-11-22T04:07:08;3.63;;;3.33;;
7340;SDS011;6870;50.944;6.932;2023-11-22T04:09:36;3.60;;;3.30;;
7340;SDS011;6870;50.944;6.932;2023-11-22T04:12:05;3.97;;;3.57;;
7340;SDS011;6870;50.944;6.932;2023-11-22T04:14:33;4.50;;;4.10;;
7340;SDS011;6870;50.944;6.932;2023-11-22T04:17:02;4.03;;;3.63;;
7340;SDS011;6870;50.944;6.932;2023-11-22T04:19:30;6.53;;;3.10;;
7340;SDS011;6870;50.944;6.932;2023-11-22T04:21:59;4.10;;;3.70;;
7340;SDS011;6870;50.944;6.932;2023-11-22T04:24:28;4.13;;;3.77;;
7340;SDS011;6870;50.944;6.932;2023-11-22T04:26:56;3.40;;;3.10;;
7340;SDS011;6870;50.944;6.932;2023-11-22T04:29:24;5.60;;;3.50;;
7340;SDS011;6870;50.944;6.932;2023-11-22T04:31:52;3.47;;;3.17;;
7340;SDS011;6870;50.944;6.932;2023-11-22T04:34:20;3.67;;;3.37;;
7340;SDS011;6870;50.944;6.932;2023-11-22T04:36:48;2.83;;;2.53;;
7340;SDS011;6870;50.944;6.932;2023-11-22T04:39:17;3.67;;;3.10;;
7340;SDS011;6870;50.944;6.932;2023-11-22T04:41:46;3.80;;;3.50;;
7340;SDS011;6870;50.944;6.932;2023-11-22T04:44:14;3.50;;;3.20;;
7340;SDS011;6870;50.944;6.932;2023-11-22T04:46:42;4.43;;;4.03;;
7340;SDS011;6870;50.944;6.932;2023-11-22T04:49:10;4.03;;;3.40;;
7340;SDS011;6870;50.944;6.932;2023-11-22T04:51:39;3.90;;;3.33;;
7340;SDS011;6870;50.944;6.932;2023-11-22T04:54:09;3.80;;;3.50;;
7340;SDS011;6870;50.944;6.932;2023-11-22T04:56:38;4.30;;;3.20;;
7340;SDS011;6870;50.944;6.932;2023-11-22T04:59:08;4.33;;;3.27;;
7340;SDS011;6870;50.944;6.932;2023-11-22T05:01:36;3.40;;;3.10;;
7340;SDS011;6870;50.944;6.932;2023-11-22T05:04:04;4.00;;;3.60;;
7340;SDS011;6870;50.944;6.932;2023-11-22T05:06:32;4.00;;;3.30;;
7340;SDS011;6870;50.944;6.932;2023-11-22T05:09:00;3.43;;;3.17;;
7340;SDS011;6870;50.944;6.932;2023-11-22T05:11:28;5.50;;;3.60;;
7340;SDS011;6870;50.944;6.932;2023-11-22T05:13:56;3.30;;;3.00;;
7340;SDS011;6870;50.944;6.932;2023-11-22T05:16:26;3.10;;;2.80;;
7340;SDS011;6870;50.944;6.932;2023-11-22T05:18:54;3.03;;;2.70;;
7340;SDS011;6870;50.944;6.932;2023-11-22T05:21:22;3.00;;;2.70;;
7340;SDS011;6870;50.944;6.932;2023-11-22T05:23:50;3.23;;;2.80;;
7340;SDS011;6870;50.944;6.932;2023-11-22T05:26:26;3.47;;;3.17;;
7340;SDS011;6870;50.944;6.932;2023-11-22T05:28:55;4.00;;;3.63;;
7340;SDS011;6870;50.944;6.932;2023-11-22T05:31:38;3.47;;;3.17;;
7340;SDS011;6870;50.944;6.932;2023-11-22T05:34:06;3.80;;;3.40;;
7340;SDS011;6870;50.944;6.932;2023-11-22T05:36:34;4.40;;;3.03;;
7340;SDS011;6870;50.944;6.932;2023-11-22T05:39:02;3.87;;;3.40;;
7340;SDS011;6870;50.944;6.932;2023-11-22T05:41:30;3.63;;;3.33;;
7340;SDS011;6870;50.944;6.932;2023-11-22T05:43:58;3.40;;;3.10;;
7340;SDS011;6870;50.944;6.932;2023-11-22T05:46:26;5.73;;;3.10;;
7340;SDS011;6870;50.944;6.932;2023-11-22T05:48:56;3.90;;;3.00;;
7340;SDS011;6870;50.944;6.932;2023-11-22T05:51:24;3.47;;;3.17;;
7340;SDS011;6870;50.944;6.932;2023-11-22T05:53:52;3.80;;;3.40;;
7340;SDS011;6870;50.944;6.932;2023-11-22T05:56:20;4.40;;;3.90;;
7340;SDS011;6870;50.944;6.932;2023-11-22T05:58:48;3.30;;;3.00;;
7340;SDS011;6870;50.944;6.932;2023-11-22T06:01:16;5.00;;;3.10;;
7340;SDS011;6870;50.944;6.932;2023-11-22T06:03:44;3.33;;;3.03;;
7340;SDS011;6870;50.944;6.932;2023-11-22T06:06:14;3.57;;;3.03;;
7340;SDS011;6870;50.944;6.932;2023-11-22T06:08:42;4.97;;;3.50;;
7340;SDS011;6870;50.944;6.932;2023-11-22T06:11:10;3.27;;;2.97;;
7340;SDS011;6870;50.944;6.932;2023-11-22T06:13:40;3.50;;;3.20;;
7340;SDS011;6870;50.944;6.932;2023-11-22T06:16:08;3.63;;;3.20;;
7340;SDS011;6870;50.944;6.932;2023-11-22T06:18:36;3.67;;;3.30;;
7340;SDS011;6870;50.944;6.932;2023-11-22T06:21:06;3.50;;;3.20;;
7340;SDS011;6870;50.944;6.932;2023-11-22T06:23:36;3.30;;;2.97;;
7340;SDS011;6870;50.944;6.932;2023-11-22T06:26:04;3.20;;;2.90;;
7340;SDS011;6870;50.944;6.932;2023-11-22T06:28:33;3.07;;;2.87;;
7340;SDS011;6870;50.944;6.932;2023-11-22T06:31:02;2.80;;;2.43;;
7340;SDS011;6870;50.944;6.932;2023-11-22T06:33:30;3.43;;;3.13;;
7340;SDS011;6870;50.944;6.932;2023-11-22T06:35:58;2.83;;;2.60;;
7340;SDS011;6870;50.944;6.932;2023-11-22T06:38:26;2.70;;;2.37;;
7340;SDS011;6870;50.944;6.932;2023-11-22T06:40:56;2.90;;;2.70;;
7340;SDS011;6870;50.944;6.932;2023-11-22T06:43:24;3.13;;;2.87;;
7340;SDS011;6870;50.944;6.932;2023-11-22T06:45:52;3.43;;;3.13;;
7340;SDS011;6870;50.944;6.932;2023-11-22T06:48:20;3.40;;;3.10;;
7340;SDS011;6870;50.944;6.932;2023-11-22T06:50:48;2.70;;;2.50;;
7340;SDS011;6870;50.944;6.932;2023-11-22T06:53:18;3.10;;;2.80;;
7340;SDS011;6870;50.944;6.932;2023-11-22T06:55:46;3.47;;;3.17;;
7340;SDS011;6870;50.944;6.932;2023-11-22T06:58:16;3.20;;;2.70;;
7340;SDS011;6870;50.944;6.932;2023-11-22T07:00:45;3.27;;;3.07;;
7340;SDS011;6870;50.944;6.932;2023-11-22T07:03:14;2.97;;;2.70;;
7340;SDS011;6870;50.944;6.932;2023-11-22T07:05:46;3.17;;;2.80;;
7340;SDS011;6870;50.944;6.932;2023-11-22T07:08:14;2.83;;;2.40;;
7340;SDS011;6870;50.944;6.932;2023-11-22T07:10:42;2.87;;;2.67;;
7340;SDS011;6870;50.944;6.932;2023-11-22T07:13:11;3.13;;;2.83;;
7340;SDS011;6870;50.944;6.932;2023-11-22T07:15:41;3.03;;;2.73;;
7340;SDS011;6870;50.944;6.932;2023-11-22T07:18:09;3.33;;;3.03;;
7340;SDS011;6870;50.944;6.932;2023-11-22T07:20:38;3.40;;;3.07;;
7340;SDS011;6870;50.944;6.932;2023-11-22T07:23:06;3.50;;;3.20;;
7340;SDS011;6870;50.944;6.932;2023-11-22T07:25:40;4.80;;;2.77;;
7340;SDS011;6870;50.944;6.932;2023-11-22T07:28:08;4.20;;;3.10;;
7340;SDS011;6870;50.944;6.932;2023-11-22T07:30:36;3.20;;;2.90;;
7340;SDS011;6870;50.944;6.932;2023-11-22T07:33:09;3.20;;;2.90;;
7340;SDS011;6870;50.944;6.932;2023-11-22T07:35:37;2.70;;;2.50;;
7340;SDS011;6870;50.944;6.932;2023-11-22T07:38:06;2.70;;;2.47;;
7340;SDS011;6870;50.944;6.932;2023-11-22T07:40:34;3.47;;;2.73;;
7340;SDS011;6870;50.944;6.932;2023-11-22T07:43:02;3.60;;;3.30;;
7340;SDS011;6870;50.944;6.932;2023-11-22T07:45:31;2.73;;;2.27;;
7340;SDS011;6870;50.944;6.932;2023-11-22T07:47:59;3.13;;;2.70;;
7340;SDS011;6870;50.944;6.932;2023-11-22T07:50:31;3.07;;;2.77;;
7340;SDS011;6870;50.944;6.932;2023-11-22T07:52:59;4.40;;;2.63;;
7340;SDS011;6870;50.944;6.932;2023-11-22T07:55:31;3.10;;;2.80;;
7340;SDS011;6870;50.944;6.932;2023-11-22T07:58:01;4.70;;;2.90;;
7340;SDS011;6870;50.944;6.932;2023-11-22T08:00:29;3.20;;;2.90;;
7340;SDS011;6870;50.944;6.932;2023-11-22T08:02:57;2.37;;;2.13;;
7340;SDS011;6870;50.944;6.932;2023-11-22T08:05:28;3.93;;;2.90;;
7340;SDS011;6870;50.944;6.932;2023-11-22T08:08:02;6.17;;;3.20;;
7340;SDS011;6870;50.944;6.932;2023-11-22T08:10:33;2.60;;;2.40;;
7340;SDS011;6870;50.944;6.932;2023-11-22T08:13:01;4.90;;;3.30;;
7340;SDS011;6870;50.944;6.932;2023-11-22T08:15:29;2.83;;;2.57;;
7340;SDS011;6870;50.944;6.932;2023-11-22T08:17:58;3.60;;;3.00;;
7340;SDS011;6870;50.944;6.932;2023-11-22T08:20:27;2.73;;;2.40;;
7340;SDS011;6870;50.944;6.932;2023-11-22T08:22:57;3.10;;;2.77;;
7340;SDS011;6870;50.944;6.932;2023-11-22T08:25:26;3.77;;;2.50;;
7340;SDS011;6870;50.944;6.932;2023-11-22T08:27:55;3.03;;;2.30;;
7340;SDS011;6870;50.944;6.932;2023-11-22T08:30:23;2.97;;;2.70;;
7340;SDS011;6870;50.944;6.932;2023-11-22T08:32:51;3.17;;;2.87;;
7340;SDS011;6870;50.944;6.932;2023-11-22T08:35:34;3.20;;;2.90;;
7340;SDS011;6870;50.944;6.932;2023-11-22T08:38:02;2.53;;;2.30;;
7340;SDS011;6870;50.944;6.932;2023-11-22T08:40:32;5.10;;;2.90;;
7340;SDS011;6870;50.944;6.932;2023-11-22T08:43:03;2.93;;;2.40;;
7340;SDS011;6870;50.944;6.932;2023-11-22T08:45:31;2.60;;;2.30;;
7340;SDS011;6870;50.944;6.932;2023-11-22T08:48:00;4.53;;;3.40;;
7340;SDS011;6870;50.944;6.932;2023-11-22T08:50:29;2.70;;;2.27;;
7340;SDS011;6870;50.944;6.932;2023-11-22T08:52:58;2.60;;;2.30;;
7340;SDS011;6870;50.944;6.932;2023-11-22T08:55:27;2.57;;;2.30;;
7340;SDS011;6870;50.944;6.932;2023-11-22T08:57:56;5.30;;;2.57;;
7340;SDS011;6870;50.944;6.932;2023-11-22T09:00:25;2.20;;;2.00;;
7340;SDS011;6870;50.944;6.932;2023-11-22T09:02:55;4.90;;;2.40;;
7340;SDS011;6870;50.944;6.932;2023-11-22T09:05:23;2.60;;;2.40;;
7340;SDS011;6870;50.944;6.932;2023-11-22T09:07:51;3.93;;;2.60;;
7340;SDS011;6870;50.944;6.932;2023-11-22T09:10:21;3.63;;;2.70;;
7340;SDS011;6870;50.944;6.932;2023-11-22T09:12:49;3.23;;;2.93;;
7340;SDS011;6870;50.944;6.932;2023-11-22T09:15:19;3.13;;;2.40;;
7340;SDS011;6870;50.944;6.932;2023-11-22T09:17:53;3.00;;;2.70;;
7340;SDS011;6870;50.944;6.932;2023-11-22T09:20:21;2.20;;;2.00;;
7340;SDS011;6870;50.944;6.932;2023-11-22T09:22:55;3.40;;;2.73;;
7340;SDS011;6870;50.944;6.932;2023-11-22T09:25:24;2.60;;;2.10;;
7340;SDS011;6870;50.944;6.932;2023-11-22T09:27:55;5.73;;;2.73;;
7340;SDS011;6870;50.944;6.932;2023-11-22T09:30:28;2.83;;;2.30;;
7340;SDS011;6870;50.944;6.932;2023-11-22T09:33:04;6.00;;;5.40;;
7340;SDS011;6870;50.944;6.932;2023-11-22T09:35:36;7.80;;;6.55;;
7340;SDS011;6870;50.944;6.932;2023-11-22T09:38:06;6.13;;;4.87;;
7340;SDS011;6870;50.944;6.932;2023-11-22T09:40:39;6.00;;;4.60;;
7340;SDS011;6870;50.944;6.932;2023-11-22T09:43:09;5.87;;;4.43;;
7340;SDS011;6870;50.944;6.932;2023-11-22T09:45:40;3.87;;;3.20;;
7340;SDS011;6870;50.944;6.932;2023-11-22T09:48:12;3.20;;;2.90;;
7340;SDS011;6870;50.944;6.932;2023-11-22T09:50:47;3.97;;;3.57;;
7340;SDS011;6870;50.944;6.932;2023-11-22T09:53:22;3.60;;;2.93;;
7340;SDS011;6870;50.944;6.932;2023-11-22T09:56:00;5.63;;;2.80;;
7340;SDS011;6870;50.944;6.932;2023-11-22T09:58:30;7.05;;;3.70;;
7340;SDS011;6870;50.944;6.932;2023-11-22T10:01:00;5.33;;;3.07;;
7340;SDS011;6870;50.944;6.932;2023-11-22T10:03:29;19.33;;;3.93;;
7340;SDS011;6870;50.944;6.932;2023-11-22T10:05:57;3.50;;;3.00;;
7340;SDS011;6870;50.944;6.932;2023-11-22T10:08:26;14.17;;;3.87;;
7340;SDS011;6870;50.944;6.932;2023-11-22T10:10:56;3.60;;;2.73;;
7340;SDS011;6870;50.944;6.932;2023-11-22T10:13:24;6.43;;;2.80;;
7340;SDS011;6870;50.944;6.932;2023-11-22T10:15:53;7.83;;;4.53;;
7340;SDS011;6870;50.944;6.932;2023-11-22T10:18:22;4.60;;;4.10;;
7340;SDS011;6870;50.944;6.932;2023-11-22T10:20:51;4.33;;;3.13;;
7340;SDS011;6870;50.944;6.932;2023-11-22T10:23:19;3.67;;;3.37;;
7340;SDS011;6870;50.944;6.932;2023-11-22T10:25:51;4.07;;;3.67;;
7340;SDS011;6870;50.944;6.932;2023-11-22T10:28:21;4.00;;;3.70;;
7340;SDS011;6870;50.944;6.932;2023-11-22T10:30:59;3.97;;;3.57;;
7340;SDS011;6870;50.944;6.932;2023-11-22T10:33:28;5.80;;;3.13;;
7340;SDS011;6870;50.944;6.932;2023-11-22T10:35:58;5.40;;;4.03;;
7340;SDS011;6870;50.944;6.932;2023-11-22T10:38:26;3.43;;;3.13;;
7340;SDS011;6870;50.944;6.932;2023-11-22T10:40:54;4.60;;;3.07;;
7340;SDS011;6870;50.944;6.932;2023-11-22T10:43:25;3.87;;;3.40;;
7340;SDS011;6870;50.944;6.932;2023-11-22T10:45:58;7.10;;;3.10;;
7340;SDS011;6870;50.944;6.932;2023-11-22T10:48:29;6.67;;;4.00;;
7340;SDS011;6870;50.944;6.932;2023-11-22T10:51:00;5.70;;;3.30;;
7340;SDS011;6870;50.944;6.932;2023-11-22T10:53:32;3.80;;;3.10;;
7340;SDS011;6870;50.944;6.932;2023-11-22T10:56:05;4.00;;;3.40;;
7340;SDS011;6870;50.944;6.932;2023-11-22T10:58:40;3.80;;;3.00;;
7340;SDS011;6870;50.944;6.932;2023-11-22T11:01:15;4.67;;;3.03;;
7340;SDS011;6870;50.944;6.932;2023-11-22T11:03:49;3.20;;;2.47;;
7340;SDS011;6870;50.944;6.932;2023-11-22T11:06:25;4.60;;;3.17;;
7340;SDS011;6870;50.944;6.932;2023-11-22T11:09:00;4.37;;;3.20;;
7340;SDS011;6870;50.944;6.932;2023-11-22T11:11:33;3.63;;;3.17;;
7340;SDS011;6870;50.944;6.932;2023-11-22T11:14:03;5.80;;;4.10;;
7340;SDS011;6870;50.944;6.932;2023-11-22T11:16:34;4.80;;;3.33;;
7340;SDS011;6870;50.944;6.932;2023-11-22T11:19:09;44.60;;;28.43;;
7340;SDS011;6870;50.944;6.932;2023-11-22T11:21:38;32.80;;;23.27;;
7340;SDS011;6870;50.944;6.932;2023-11-22T11:24:07;27.53;;;19.03;;
7340;SDS011;6870;50.944;6.932;2023-11-22T11:26:35;31.13;;;20.30;;
7340;SDS011;6870;50.944;6.932;2023-11-22T11:29:03;31.40;;;21.10;;
7340;SDS011;6870;50.944;6.932;2023-11-22T11:31:33;29.40;;;20.47;;
7340;SDS011;6870;50.944;6.932;2023-11-22T11:34:08;29.87;;;21.80;;
7340;SDS011;6870;50.944;6.932;2023-11-22T11:36:37;32.67;;;22.07;;
7340;SDS011;6870;50.944;6.932;2023-11-22T11:39:06;27.60;;;19.70;;
7340;SDS011;6870;50.944;6.932;2023-11-22T11:41:42;29.03;;;19.67;;
7340;SDS011;6870;50.944;6.932;2023-11-22T11:44:10;28.30;;;20.10;;
7340;SDS011;6870;50.944;6.932;2023-11-22T11:46:39;30.93;;;20.83;;
7340;SDS011;6870;50.944;6.932;2023-11-22T11:49:11;29.03;;;19.77;;
7340;SDS011;6870;50.944;6.932;2023-11-22T11:51:40;25.47;;;18.20;;
7340;SDS011;6870;50.944;6.932;2023-11-22T11:54:09;27.37;;;20.13;;
7340;SDS011;6870;50.944;6.932;2023-11-22T11:56:43;31.33;;;18.73;;
7340;SDS011;6870;50.944;6.932;2023-11-22T11:59:12;26.87;;;18.90;;
7340;SDS011;6870;50.944;6.932;2023-11-22T12:01:40;23.50;;;18.00;;
7340;SDS011;6870;50.944;6.932;2023-11-22T12:04:10;45.87;;;32.17;;
7340;SDS011;6870;50.944;6.932;2023-11-22T12:06:38;69.27;;;44.83;;
7340;SDS011;6870;50.944;6.932;2023-11-22T12:09:06;8.53;;;7.23;;
7340;SDS011;6870;50.944;6.932;2023-11-22T12:11:35;4.63;;;3.93;;
7340;SDS011;6870;50.944;6.932;2023-11-22T12:14:03;6.37;;;3.80;;
7340;SDS011;6870;50.944;6.932;2023-11-22T12:16:31;4.70;;;4.00;;
7340;SDS011;6870;50.944;6.932;2023-11-22T12:19:00;4.70;;;4.00;;
7340;SDS011;6870;50.944;6.932;2023-11-22T12:21:30;4.53;;;4.07;;
7340;SDS011;6870;50.944;6.932;2023-11-22T12:23:59;5.87;;;3.67;;
7340;SDS011;6870;50.944;6.932;2023-11-22T12:26:29;5.30;;;3.70;;
7340;SDS011;6870;50.944;6.932;2023-11-22T12:29:00;4.47;;;2.83;;
7340;SDS011;6870;50.944;6.932;2023-11-22T12:31:32;4.47;;;3.43;;
7340;SDS011;6870;50.944;6.932;2023-11-22T12:34:03;4.30;;;3.10;;
7340;SDS011;6870;50.944;6.932;2023-11-22T12:36:34;5.70;;;2.80;;
7340;SDS011;6870;50.944;6.932;2023-11-22T12:39:06;3.47;;;2.60;;
7340;SDS011;6870;50.944;6.932;2023-11-22T12:41:42;4.70;;;2.47;;
7340;SDS011;6870;50.944;6.932;2023-11-22T12:44:21;3.33;;;2.90;;
7340;SDS011;6870;50.944;6.932;2023-11-22T12:46:50;8.33;;;2.27;;
7340;SDS011;6870;50.944;6.932;2023-11-22T12:49:22;4.87;;;2.73;;
7340;SDS011;6870;50.944;6.932;2023-11-22T12:51:52;12.17;;;8.20;;
7340;SDS011;6870;50.944;6.932;2023-11-22T12:54:21;35.60;;;22.27;;
7340;SDS011;6870;50.944;6.932;2023-11-22T12:56:50;34.00;;;22.67;;
7340;SDS011;6870;50.944;6.932;2023-11-22T12:59:21;39.40;;;25.70;;
7340;SDS011;6870;50.944;6.932;2023-11-22T13:01:50;41.37;;;29.00;;
7340;SDS011;6870;50.944;6.932;2023-11-22T13:04:19;45.33;;;31.40;;
7340;SDS011;6870;50.944;6.932;2023-11-22T13:06:47;50.83;;;30.40;;
7340;SDS011;6870;50.944;6.932;2023-11-22T13:09:17;46.70;;;31.40;;
7340;SDS011;6870;50.944;6.932;2023-11-22T13:11:45;50.00;;;31.87;;
7340;SDS011;6870;50.944;6.932;2023-11-22T13:14:13;47.23;;;32.33;;
7340;SDS011;6870;50.944;6.932;2023-11-22T13:16:42;45.93;;;30.50;;
7340;SDS011;6870;50.944;6.932;2023-11-22T13:19:11;45.87;;;31.27;;
7340;SDS011;6870;50.944;6.932;2023-11-22T13:21:39;55.27;;;32.33;;
7340;SDS011;6870;50.944;6.932;2023-11-22T13:24:08;44.77;;;30.20;;
7340;SDS011;6870;50.944;6.932;2023-11-22T13:26:38;55.87;;;32.00;;
7340;SDS011;6870;50.944;6.932;2023-11-22T13:29:06;41.93;;;29.80;;
7340;SDS011;6870;50.944;6.932;2023-11-22T13:31:34;46.80;;;29.90;;
7340;SDS011;6870;50.944;6.932;2023-11-22T13:34:02;41.57;;;30.50;;
7340;SDS011;6870;50.944;6.932;2023-11-22T13:36:31;42.60;;;30.10;;
7340;SDS011;6870;50.944;6.932;2023-11-22T13:38:59;44.73;;;30.73;;
7340;SDS011;6870;50.944;6.932;2023-11-22T13:41:31;38.80;;;28.33;;
7340;SDS011;6870;50.944;6.932;2023-11-22T13:44:00;48.03;;;27.93;;
7340;SDS011;6870;50.944;6.932;2023-11-22T13:46:29;43.40;;;29.50;;
7340;SDS011;6870;50.944;6.932;2023-11-22T13:48:57;39.57;;;28.20;;
7340;SDS011;6870;50.944;6.932;2023-11-22T13:51:25;48.33;;;28.00;;
7340;SDS011;6870;50.944;6.932;2023-11-22T13:53:54;43.07;;;27.93;;
7340;SDS011;6870;50.944;6.932;2023-11-22T13:56:22;41.40;;;27.83;;
7340;SDS011;6870;50.944;6.932;2023-11-22T13:58:50;43.20;;;27.00;;
7340;SDS011;6870;50.944;6.932;2023-11-22T14:01:19;39.57;;;27.27;;
7340;SDS011;6870;50.944;6.932;2023-11-22T14:03:49;42.97;;;26.80;;
7340;SDS011;6870;50.944;6.932;2023-11-22T14:06:18;45.70;;;25.80;;
7340;SDS011;6870;50.944;6.932;2023-11-22T14:08:46;44.23;;;26.00;;
7340;SDS011;6870;50.944;6.932;2023-11-22T14:11:14;41.50;;;26.77;;
7340;SDS011;6870;50.944;6.932;2023-11-22T14:13:42;44.30;;;27.43;;
7340;SDS011;6870;50.944;6.932;2023-11-22T14:16:11;32.67;;;23.60;;
7340;SDS011;6870;50.944;6.932;2023-11-22T14:18:41;36.37;;;24.93;;
7340;SDS011;6870;50.944;6.932;2023-11-22T14:21:09;39.30;;;23.47;;
7340;SDS011;6870;50.944;6.932;2023-11-22T14:23:37;40.67;;;25.53;;
7340;SDS011;6870;50.944;6.932;2023-11-22T14:26:06;37.60;;;25.07;;
7340;SDS011;6870;50.944;6.932;2023-11-22T14:28:34;33.07;;;24.30;;
7340;SDS011;6870;50.944;6.932;2023-11-22T14:31:02;36.30;;;24.60;;
7340;SDS011;6870;50.944;6.932;2023-11-22T14:33:31;38.30;;;23.70;;
7340;SDS011;6870;50.944;6.932;2023-11-22T14:36:00;31.83;;;22.20;;
7340;SDS011;6870;50.944;6.932;2023-11-22T14:38:30;39.30;;;22.70;;
7340;SDS011;6870;50.944;6.932;2023-11-22T14:40:58;35.60;;;23.63;;
7340;SDS011;6870;50.944;6.932;2023-11-22T14:43:27;32.60;;;20.00;;
7340;SDS011;6870;50.944;6.932;2023-11-22T14:45:55;35.67;;;24.50;;
7340;SDS011;6870;50.944;6.932;2023-11-22T14:48:23;34.33;;;21.43;;
7340;SDS011;6870;50.944;6.932;2023-11-22T14:50:53;35.23;;;20.73;;
7340;SDS011;6870;50.944;6.932;2023-11-22T14:53:22;30.57;;;20.43;;
7340;SDS011;6870;50.944;6.932;2023-11-22T14:55:51;27.53;;;20.57;;
7340;SDS011;6870;50.944;6.932;2023-11-22T14:58:20;31.63;;;19.70;;
7340;SDS011;6870;50.944;6.932;2023-11-22T15:00:48;28.77;;;20.13;;
7340;SDS011;6870;50.944;6.932;2023-11-22T15:03:16;27.53;;;18.23;;
7340;SDS011;6870;50.944;6.932;2023-11-22T15:05:44;32.33;;;20.00;;
7340;SDS011;6870;50.944;6.932;2023-11-22T15:08:12;33.47;;;18.90;;
7340;SDS011;6870;50.944;6.932;2023-11-22T15:10:41;30.73;;;19.60;;
7340;SDS011;6870;50.944;6.932;2023-11-22T15:13:10;28.50;;;18.87;;
7340;SDS011;6870;50.944;6.932;2023-11-22T15:15:38;29.90;;;20.77;;
7340;SDS011;6870;50.944;6.932;2023-11-22T15:18:06;30.33;;;18.90;;
7340;SDS011;6870;50.944;6.932;2023-11-22T15:20:34;31.40;;;18.37;;
7340;SDS011;6870;50.944;6.932;2023-11-22T15:23:04;30.20;;;19.93;;